createdAt,value
2022-12-15T00:02:45.694Z,24.05
2022-12-15T00:05:31.009Z,23.30
2022-12-15T00:08:23.944Z,23.23
2022-12-15T00:13:54.595Z,21.90
2022-12-15T00:16:40.082Z,23.52
2022-12-15T00:19:25.370Z,23.77
2022-12-15T00:22:10.644Z,23.77
2022-12-15T00:24:56.122Z,24.27
2022-12-15T00:27:41.802Z,24.48
2022-12-15T00:30:28.469Z,24.38
2022-12-15T00:33:14.133Z,25.38
2022-12-15T00:35:59.770Z,24.95
2022-12-15T00:38:44.816Z,26.35
2022-12-15T00:41:13.617Z,23.13
2022-12-15T00:43:40.422Z,23.80
2022-12-15T00:46:26.695Z,25.65
2022-12-15T00:48:53.531Z,24.42
2022-12-15T00:51:20.811Z,24.13
2022-12-15T00:54:06.310Z,25.42
2022-12-15T00:56:51.861Z,23.85
2022-12-15T00:59:37.294Z,24.38
2022-12-15T01:02:22.913Z,24.25
2022-12-15T01:05:08.577Z,26.17
2022-12-15T01:07:53.961Z,25.50
2022-12-15T01:10:39.529Z,23.40
2022-12-15T01:13:25.105Z,25.23
2022-12-15T01:16:10.723Z,22.40
2022-12-15T01:18:56.026Z,24.83
2022-12-15T01:21:24.841Z,23.65
2022-12-15T01:23:52.707Z,24.10
2022-12-15T01:26:20.199Z,23.70
2022-12-15T01:28:46.973Z,24.80
2022-12-15T01:31:14.475Z,23.90
2022-12-15T01:33:43.518Z,24.38
2022-12-15T01:36:10.774Z,25.20
2022-12-15T01:38:37.783Z,23.90
2022-12-15T01:41:10.919Z,23.98
2022-12-15T01:43:40.191Z,25.77
2022-12-15T01:46:11.318Z,24.10
2022-12-15T01:48:57.374Z,25.17
2022-12-15T01:51:32.814Z,22.42
2022-12-15T01:54:15.085Z,23.77
2022-12-15T01:56:45.469Z,23.35
2022-12-15T01:59:27.187Z,24.60
2022-12-15T02:01:54.164Z,23.77
2022-12-15T02:04:23.671Z,22.52
2022-12-15T02:06:50.697Z,23.80
2022-12-15T02:09:19.238Z,24.10
2022-12-15T02:12:10.423Z,24.60
2022-12-15T02:14:37.110Z,22.48
2022-12-15T02:17:21.871Z,23.95
2022-12-15T02:20:17.890Z,24.85
2022-12-15T02:22:50.517Z,24.13
2022-12-15T02:25:38.237Z,23.42
2022-12-15T02:28:10.388Z,22.80
2022-12-15T02:31:17.402Z,22.65
2022-12-15T02:34:13.681Z,22.33
2022-12-15T02:36:45.418Z,22.83
2022-12-15T02:39:12.910Z,24.35
2022-12-15T02:41:46.085Z,23.77
2022-12-15T02:44:19.522Z,23.75
2022-12-15T02:47:15.943Z,23.73
2022-12-15T02:50:00.992Z,23.63
2022-12-15T02:53:07.464Z,24.02
2022-12-15T02:55:50.362Z,21.65
2022-12-15T02:58:23.788Z,22.05
2022-12-15T03:01:01.141Z,24.33
2022-12-15T03:03:31.233Z,23.15
2022-12-15T03:05:58.328Z,22.75
2022-12-15T03:08:25.111Z,23.67
2022-12-15T03:10:53.268Z,24.67
2022-12-15T03:13:20.162Z,23.70
2022-12-15T03:15:46.984Z,23.02
2022-12-15T03:18:13.809Z,23.52
2022-12-15T03:20:40.527Z,22.83
2022-12-15T03:23:07.485Z,22.15
2022-12-15T03:25:34.417Z,23.30
2022-12-15T03:28:01.219Z,22.17
2022-12-15T03:30:28.013Z,23.27
2022-12-15T03:32:54.780Z,23.67
2022-12-15T03:35:21.720Z,22.83
2022-12-15T03:37:48.607Z,23.42
2022-12-15T03:40:16.842Z,22.55
2022-12-15T03:42:49.607Z,23.13
2022-12-15T03:45:24.683Z,23.30
2022-12-15T03:47:52.388Z,22.92
2022-12-15T03:50:25.319Z,23.30
2022-12-15T03:52:54.097Z,23.48
2022-12-15T03:55:21.754Z,23.33
2022-12-15T03:57:48.587Z,24.63
2022-12-15T04:00:16.349Z,23.23
2022-12-15T04:02:43.741Z,22.95
2022-12-15T04:05:18.587Z,23.58
2022-12-15T04:07:45.404Z,22.60
2022-12-15T04:10:12.621Z,23.92
2022-12-15T04:12:42.444Z,24.17
2022-12-15T04:15:10.638Z,23.90
2022-12-15T04:17:37.738Z,22.10
2022-12-15T04:20:09.387Z,23.20
2022-12-15T04:22:43.318Z,23.23
2022-12-15T04:25:31.495Z,23.27
2022-12-15T04:28:17.050Z,23.50
2022-12-15T04:31:12.742Z,22.42
2022-12-15T04:34:03.158Z,22.40
2022-12-15T04:36:50.143Z,23.10
2022-12-15T04:39:35.658Z,23.30
2022-12-15T04:42:21.638Z,23.58
2022-12-15T04:45:15.512Z,24.17
2022-12-15T04:48:04.107Z,21.85
2022-12-15T04:50:49.765Z,24.10
2022-12-15T04:53:36.977Z,23.35
2022-12-15T04:56:23.776Z,22.95
2022-12-15T04:59:09.258Z,22.83
2022-12-15T05:01:54.803Z,22.45
2022-12-15T05:04:40.207Z,21.73
2022-12-15T05:07:25.410Z,23.30
2022-12-15T05:10:14.893Z,24.25
2022-12-15T05:13:01.501Z,23.70
2022-12-15T05:15:47.008Z,23.27
2022-12-15T05:18:32.712Z,21.52
2022-12-15T05:21:18.193Z,24.20
2022-12-15T05:24:03.623Z,23.15
2022-12-15T05:26:52.731Z,22.90
2022-12-15T05:29:39.166Z,22.48
2022-12-15T05:32:07.001Z,22.27
2022-12-15T05:34:35.439Z,23.60
2022-12-15T05:37:04.496Z,23.67
2022-12-15T05:39:31.254Z,23.13
2022-12-15T05:41:58.005Z,23.25
2022-12-15T05:44:26.167Z,22.92
2022-12-15T05:46:53.336Z,23.38
2022-12-15T05:49:20.333Z,23.48
2022-12-15T05:51:48.198Z,23.45
2022-12-15T05:54:18.154Z,23.38
2022-12-15T05:56:45.477Z,25.10
2022-12-15T05:59:13.044Z,23.75
2022-12-15T06:01:40.037Z,24.38
2022-12-15T06:04:07.489Z,25.30
2022-12-15T06:06:34.275Z,23.23
2022-12-15T06:09:01.029Z,22.75
2022-12-15T06:11:27.915Z,24.30
2022-12-15T06:13:55.853Z,24.17
2022-12-15T06:16:24.342Z,24.65
2022-12-15T06:18:59.444Z,22.77
2022-12-15T06:21:32.138Z,24.05
2022-12-15T06:24:00.747Z,22.35
2022-12-15T06:26:33.786Z,24.15
2022-12-15T06:29:05.311Z,22.63
2022-12-15T06:31:33.932Z,23.60
2022-12-15T06:34:13.165Z,23.95
2022-12-15T06:36:40.425Z,22.98
2022-12-15T06:39:10.540Z,23.67
2022-12-15T06:41:37.825Z,23.63
2022-12-15T06:44:05.361Z,24.38
2022-12-15T06:46:33.690Z,24.98
2022-12-15T06:49:01.097Z,25.00
2022-12-15T06:51:28.747Z,26.60
2022-12-15T06:53:56.318Z,26.38
2022-12-15T06:56:33.104Z,28.13
2022-12-15T06:59:01.852Z,29.33
2022-12-15T07:01:29.373Z,28.08
2022-12-15T07:03:57.010Z,29.30
2022-12-15T07:06:24.041Z,30.90
2022-12-15T07:08:56.468Z,29.60
2022-12-15T07:13:51.347Z,28.25
2022-12-15T07:16:18.878Z,33.08
2022-12-15T07:18:45.782Z,34.00
2022-12-15T07:21:12.721Z,30.20
2022-12-15T07:23:54.238Z,34.20
2022-12-15T07:26:22.436Z,34.00
2022-12-15T07:28:49.330Z,33.60
2022-12-15T07:31:16.184Z,37.15
2022-12-15T07:33:43.549Z,39.83
2022-12-15T07:36:10.988Z,36.53
2022-12-15T07:38:38.255Z,36.55
2022-12-15T07:41:07.427Z,37.53
2022-12-15T07:43:35.249Z,41.10
2022-12-15T07:46:02.705Z,39.88
2022-12-15T07:48:29.918Z,40.80
2022-12-15T07:51:08.365Z,40.28
2022-12-15T07:53:37.225Z,38.97
2022-12-15T07:56:07.891Z,39.03
2022-12-15T07:58:35.969Z,39.63
2022-12-15T08:01:08.388Z,38.67
2022-12-15T08:06:05.489Z,36.50
2022-12-15T08:08:33.434Z,39.30
2022-12-15T08:11:11.604Z,40.88
2022-12-15T08:16:26.475Z,42.08
2022-12-15T08:18:53.887Z,43.92
2022-12-15T08:21:20.613Z,41.22
2022-12-15T08:23:47.822Z,42.90
2022-12-15T08:26:16.824Z,40.60
2022-12-15T08:28:44.618Z,40.75
2022-12-15T08:31:20.141Z,41.47
2022-12-15T08:33:47.764Z,41.15
2022-12-15T08:36:17.540Z,42.80
2022-12-15T08:38:45.661Z,43.50
2022-12-15T08:41:16.044Z,42.90
2022-12-15T08:43:48.060Z,45.92
2022-12-15T08:46:21.117Z,44.40
2022-12-15T08:48:48.659Z,45.58
2022-12-15T08:51:16.324Z,45.70
2022-12-15T08:53:43.554Z,45.90
2022-12-15T08:56:13.350Z,44.40
2022-12-15T08:58:40.517Z,45.55
2022-12-15T09:01:16.086Z,47.05
2022-12-15T09:03:47.542Z,44.33
2022-12-15T09:06:17.860Z,45.72
2022-12-15T09:08:44.964Z,45.38
2022-12-15T09:11:17.435Z,47.25
2022-12-15T09:13:44.472Z,44.58
2022-12-15T09:16:16.784Z,48.20
2022-12-15T09:18:45.445Z,44.75
2022-12-15T09:21:12.998Z,49.75
2022-12-15T09:23:40.862Z,44.00
2022-12-15T09:26:09.935Z,43.83
2022-12-15T09:28:38.242Z,45.45
2022-12-15T09:31:11.747Z,44.90
2022-12-15T09:33:39.739Z,43.55
2022-12-15T09:36:07.778Z,43.55
2022-12-15T09:38:35.715Z,44.60
2022-12-15T09:41:13.612Z,43.38
2022-12-15T09:43:50.793Z,44.85
2022-12-15T09:46:26.820Z,46.03
2022-12-15T09:48:55.938Z,41.88
2022-12-15T09:51:33.339Z,46.67
2022-12-15T09:54:00.693Z,40.80
2022-12-15T09:56:42.568Z,44.88
2022-12-15T09:59:36.811Z,45.58
2022-12-15T10:02:33.223Z,43.85
2022-12-15T10:04:59.937Z,41.75
2022-12-15T10:07:42.282Z,42.90
2022-12-15T10:10:29.878Z,43.97
2022-12-15T10:13:02.942Z,44.92
2022-12-15T10:15:37.921Z,45.08
2022-12-15T10:18:20.232Z,44.10
2022-12-15T10:20:48.457Z,46.85
2022-12-15T10:23:17.721Z,46.10
2022-12-15T10:25:58.141Z,45.30
2022-12-15T10:29:09.173Z,44.58
2022-12-15T10:31:54.311Z,44.40
2022-12-15T10:34:34.386Z,44.38
2022-12-15T10:37:01.269Z,49.95
2022-12-15T10:39:42.606Z,44.25
2022-12-15T10:42:46.109Z,52.00
2022-12-15T10:45:35.753Z,48.65
2022-12-15T10:48:04.053Z,49.45
2022-12-15T10:50:30.914Z,53.95
2022-12-15T10:52:57.805Z,43.60
2022-12-15T10:55:43.026Z,41.75
2022-12-15T10:58:21.837Z,43.55
2022-12-15T11:01:05.221Z,42.75
2022-12-15T11:03:37.986Z,42.95
2022-12-15T11:06:15.703Z,44.58
2022-12-15T11:08:44.200Z,41.35
2022-12-15T11:12:00.945Z,41.67
2022-12-15T11:14:41.251Z,41.60
2022-12-15T11:17:08.098Z,40.90
2022-12-15T11:20:01.971Z,42.80
2022-12-15T11:22:46.250Z,42.67
2022-12-15T11:25:34.005Z,41.33
2022-12-15T11:28:06.864Z,41.35
2022-12-15T11:30:42.445Z,39.53
2022-12-15T11:33:10.489Z,38.50
2022-12-15T11:35:46.361Z,37.67
2022-12-15T11:38:43.636Z,39.95
2022-12-15T11:41:50.380Z,38.70
2022-12-15T11:44:25.041Z,40.05
2022-12-15T11:46:57.161Z,38.97
2022-12-15T11:49:26.720Z,39.30
2022-12-15T11:52:03.588Z,38.58
2022-12-15T11:54:35.338Z,36.58
2022-12-15T11:57:20.897Z,36.77
2022-12-15T12:00:09.225Z,37.80
2022-12-15T12:03:15.864Z,34.30
2022-12-15T12:05:59.426Z,36.13
2022-12-15T12:08:36.350Z,35.90
2022-12-15T12:11:12.249Z,37.72
2022-12-15T12:13:46.629Z,35.20
2022-12-15T12:16:42.023Z,34.30
2022-12-15T12:19:19.361Z,33.30
2022-12-15T12:21:50.928Z,34.80
2022-12-15T12:24:30.854Z,37.15
2022-12-15T12:27:12.680Z,34.60
2022-12-15T12:30:14.423Z,34.05
2022-12-15T12:32:51.442Z,35.38
2022-12-15T12:35:30.317Z,38.65
2022-12-15T12:38:05.677Z,34.72
2022-12-15T12:40:46.884Z,36.65
2022-12-15T12:43:23.213Z,35.08
2022-12-15T12:46:04.095Z,34.67
2022-12-15T12:48:48.540Z,34.13
2022-12-15T12:51:30.721Z,35.90
2022-12-15T12:53:59.515Z,35.53
2022-12-15T12:56:48.664Z,33.78
2022-12-15T12:59:29.419Z,32.67
2022-12-15T13:02:31.682Z,33.58
2022-12-15T13:04:59.978Z,34.25
2022-12-15T13:07:36.376Z,35.15
2022-12-15T13:10:09.584Z,33.40
2022-12-15T13:12:53.565Z,32.38
2022-12-15T13:15:29.688Z,32.80
2022-12-15T13:18:12.470Z,33.70
2022-12-15T13:20:40.309Z,33.80
2022-12-15T13:23:22.637Z,35.15
2022-12-15T13:25:59.055Z,33.28
2022-12-15T13:28:29.427Z,33.92
2022-12-15T13:31:21.464Z,34.53
2022-12-15T13:33:52.335Z,36.50
2022-12-15T13:36:38.232Z,35.87
2022-12-15T13:39:27.858Z,36.30
2022-12-15T13:44:57.766Z,36.22
2022-12-15T13:47:30.736Z,37.60
2022-12-15T13:50:06.289Z,35.63
2022-12-15T13:55:37.918Z,35.60
2022-12-15T13:58:17.383Z,36.92
2022-12-15T14:00:56.930Z,36.70
2022-12-15T14:03:24.469Z,36.72
2022-12-15T14:05:59.985Z,36.35
2022-12-15T14:08:29.754Z,38.58
2022-12-15T14:11:00.050Z,36.92
2022-12-15T14:13:31.387Z,36.78
2022-12-15T14:16:14.030Z,38.40
2022-12-15T14:18:43.207Z,39.42
2022-12-15T14:21:25.703Z,36.53
2022-12-15T14:24:28.277Z,37.63
2022-12-15T14:26:43.212Z,42.15
2022-12-15T14:29:10.580Z,38.92
2022-12-15T14:31:38.090Z,38.17
2022-12-15T14:34:18.611Z,37.67
2022-12-15T14:36:46.150Z,38.10
2022-12-15T14:39:31.093Z,36.45
2022-12-15T14:41:59.069Z,38.35
2022-12-15T14:44:40.071Z,36.42
2022-12-15T14:47:35.313Z,36.13
2022-12-15T14:50:03.964Z,40.33
2022-12-15T14:52:35.671Z,38.15
2022-12-15T14:55:23.613Z,40.93
2022-12-15T14:57:52.451Z,42.63
2022-12-15T15:00:22.943Z,42.25
2022-12-15T15:02:49.839Z,38.95
2022-12-15T15:05:28.000Z,37.83
2022-12-15T15:07:56.764Z,39.38
2022-12-15T15:10:29.502Z,41.13
2022-12-15T15:12:56.386Z,38.65
2022-12-15T15:15:26.640Z,52.95
2022-12-15T15:17:59.450Z,48.22
2022-12-15T15:20:29.291Z,45.00
2022-12-15T15:23:08.102Z,47.80
2022-12-15T15:25:41.313Z,45.83
2022-12-15T15:28:20.418Z,40.97
2022-12-15T15:30:56.027Z,40.30
2022-12-15T15:33:24.517Z,39.85
2022-12-15T15:35:56.915Z,39.85
2022-12-15T15:38:34.887Z,40.88
2022-12-15T15:41:15.695Z,40.30
2022-12-15T15:43:43.209Z,40.92
2022-12-15T15:46:22.557Z,41.40
2022-12-15T15:48:59.573Z,41.28
2022-12-15T15:51:27.965Z,41.80
2022-12-15T15:53:59.929Z,39.40
2022-12-15T15:56:27.578Z,45.97
2022-12-15T15:58:54.427Z,48.05
2022-12-15T16:01:21.177Z,48.70
2022-12-15T16:03:48.073Z,45.25
2022-12-15T16:06:20.624Z,43.45
2022-12-15T16:08:52.073Z,40.67
2022-12-15T16:11:20.095Z,40.60
2022-12-15T16:13:47.067Z,39.75
2022-12-15T16:16:19.705Z,41.78
2022-12-15T16:18:46.580Z,42.42
2022-12-15T16:21:15.118Z,41.30
2022-12-15T16:23:44.610Z,42.92
2022-12-15T16:26:25.622Z,41.00
2022-12-15T16:28:52.391Z,40.88
2022-12-15T16:31:32.774Z,45.15
2022-12-15T16:34:05.783Z,40.70
2022-12-15T16:36:33.195Z,39.45
2022-12-15T16:38:59.964Z,42.10
2022-12-15T16:41:27.811Z,41.58
2022-12-15T16:43:54.684Z,42.78
2022-12-15T16:46:21.493Z,43.33
2022-12-15T16:48:48.477Z,41.90
2022-12-15T16:51:46.755Z,42.13
2022-12-15T16:54:44.841Z,39.80
2022-12-15T16:57:12.114Z,40.65
2022-12-15T16:59:38.866Z,39.55
2022-12-15T17:02:27.973Z,41.65
2022-12-15T17:04:55.536Z,39.30
2022-12-15T17:07:23.743Z,38.20
2022-12-15T17:09:51.076Z,40.25
2022-12-15T17:12:18.649Z,41.47
2022-12-15T17:14:46.147Z,41.38
2022-12-15T17:17:15.492Z,41.55
2022-12-15T17:19:57.875Z,40.10
2022-12-15T17:22:29.341Z,40.45
2022-12-15T17:24:56.113Z,37.70
2022-12-15T17:27:28.604Z,41.17
2022-12-15T17:32:23.194Z,38.95
2022-12-15T17:34:50.209Z,40.90
2022-12-15T17:37:17.144Z,42.28
2022-12-15T17:39:50.792Z,41.20
2022-12-15T17:42:20.406Z,40.20
2022-12-15T17:44:48.268Z,41.83
2022-12-15T17:47:16.572Z,40.53
2022-12-15T17:49:43.872Z,41.83
2022-12-15T17:52:19.052Z,42.80
2022-12-15T17:54:45.927Z,42.90
2022-12-15T17:57:12.852Z,42.20
2022-12-15T17:59:39.628Z,41.55
2022-12-15T18:02:06.699Z,43.35
2022-12-15T18:04:33.581Z,44.65
2022-12-15T18:07:02.316Z,44.20
2022-12-15T18:09:29.824Z,45.05
2022-12-15T18:11:56.659Z,44.75
2022-12-15T18:14:23.694Z,43.85
2022-12-15T18:16:50.638Z,46.13
2022-12-15T18:19:17.417Z,44.58
2022-12-15T18:21:44.361Z,45.03
2022-12-15T18:24:17.045Z,47.42
2022-12-15T18:26:44.373Z,46.83
2022-12-15T18:29:18.066Z,46.83
2022-12-15T18:31:48.196Z,50.05
2022-12-15T18:34:21.156Z,44.25
2022-12-15T18:36:48.461Z,42.33
2022-12-15T18:39:19.584Z,44.22
2022-12-15T18:41:47.011Z,47.22
2022-12-15T18:44:23.951Z,45.63
2022-12-15T18:46:51.048Z,51.22
2022-12-15T18:49:19.325Z,48.33
2022-12-15T18:51:46.953Z,53.08
2022-12-15T18:54:22.839Z,48.17
2022-12-15T18:56:50.183Z,70.40
2022-12-15T18:59:19.273Z,57.80
2022-12-15T19:01:49.602Z,61.80
2022-12-15T19:04:16.603Z,56.30
2022-12-15T19:06:44.390Z,50.05
2022-12-15T19:09:23.225Z,48.15
2022-12-15T19:12:16.663Z,46.97
2022-12-15T19:14:45.237Z,48.05
2022-12-15T19:17:35.775Z,76.68
2022-12-15T19:20:25.234Z,66.05
2022-12-15T19:22:52.685Z,49.70
2022-12-15T19:25:26.712Z,49.72
2022-12-15T19:28:01.289Z,46.42
2022-12-15T19:30:31.282Z,49.95
2022-12-15T19:32:58.125Z,46.40
2022-12-15T19:35:27.303Z,50.10
2022-12-15T19:37:57.329Z,47.53
2022-12-15T19:40:30.643Z,47.22
2022-12-15T19:42:58.850Z,215.77
2022-12-15T19:45:27.962Z,71.18
2022-12-15T19:47:55.302Z,53.97
2022-12-15T19:50:24.716Z,51.10
2022-12-15T19:53:01.602Z,50.22
2022-12-15T19:55:32.802Z,48.70
2022-12-15T19:58:01.355Z,47.22
2022-12-15T20:00:28.241Z,47.22
2022-12-15T20:02:55.882Z,46.35
2022-12-15T20:05:24.489Z,47.28
2022-12-15T20:07:54.669Z,49.15
2022-12-15T20:10:31.963Z,45.72
2022-12-15T20:13:00.558Z,47.28
2022-12-15T20:15:27.655Z,48.20
2022-12-15T20:17:57.776Z,48.95
2022-12-15T20:20:27.615Z,46.65
2022-12-15T20:22:57.566Z,44.65
2022-12-15T20:25:27.924Z,46.50
2022-12-15T20:27:55.388Z,46.42
2022-12-15T20:30:25.395Z,47.63
2022-12-15T20:32:52.398Z,46.92
2022-12-15T20:35:21.698Z,45.78
2022-12-15T20:37:49.431Z,43.50
2022-12-15T20:40:22.581Z,47.15
2022-12-15T20:42:50.323Z,44.20
2022-12-15T20:45:19.847Z,43.60
2022-12-15T20:47:49.228Z,45.00
2022-12-15T20:50:35.323Z,42.42
2022-12-15T20:53:02.830Z,42.47
2022-12-15T20:55:30.211Z,44.03
2022-12-15T20:57:56.966Z,42.92
2022-12-15T21:00:23.789Z,42.55
2022-12-15T21:02:52.103Z,41.75
2022-12-15T21:05:24.600Z,41.63
2022-12-15T21:07:52.006Z,43.70
2022-12-15T21:10:20.147Z,46.38
2022-12-15T21:12:49.064Z,48.00
2022-12-15T21:15:19.417Z,47.85
2022-12-15T21:17:46.942Z,47.17
2022-12-15T21:20:14.431Z,53.08
2022-12-15T21:22:41.839Z,45.05
2022-12-15T21:25:25.835Z,43.08
2022-12-15T21:27:52.979Z,42.85
2022-12-15T21:30:22.351Z,43.00
2022-12-15T21:32:50.353Z,43.83
2022-12-15T21:35:18.571Z,44.75
2022-12-15T21:37:48.260Z,45.10
2022-12-15T21:40:20.543Z,42.38
2022-12-15T21:42:48.787Z,41.03
2022-12-15T21:45:17.575Z,40.55
2022-12-15T21:48:03.380Z,41.72
2022-12-15T21:50:30.153Z,41.92
2022-12-15T21:52:56.935Z,40.47
2022-12-15T21:55:26.854Z,40.72
2022-12-15T21:57:54.910Z,40.60
2022-12-15T22:00:22.366Z,40.55
2022-12-15T22:02:51.282Z,45.55
2022-12-15T22:05:20.476Z,42.95
2022-12-15T22:07:48.044Z,43.80
2022-12-15T22:10:15.500Z,47.42
2022-12-15T22:12:44.273Z,46.92
2022-12-15T22:15:24.089Z,43.10
2022-12-15T22:17:50.884Z,42.63
2022-12-15T22:20:23.894Z,43.28
2022-12-15T22:22:51.213Z,43.35
2022-12-15T22:25:20.493Z,39.72
2022-12-15T22:27:47.944Z,44.33
2022-12-15T22:30:28.042Z,41.47
2022-12-15T22:32:54.890Z,42.15
2022-12-15T22:35:24.697Z,42.42
2022-12-15T22:37:56.075Z,40.63
2022-12-15T22:40:24.198Z,40.78
2022-12-15T22:42:55.045Z,40.55
2022-12-15T22:45:24.009Z,39.95
2022-12-15T22:47:52.390Z,39.80
2022-12-15T22:50:23.651Z,44.28
2022-12-15T22:52:50.963Z,40.60
2022-12-15T22:55:20.464Z,42.20
2022-12-15T22:57:59.496Z,41.70
2022-12-15T23:00:26.416Z,40.92
2022-12-15T23:02:53.370Z,42.17
2022-12-15T23:05:20.737Z,39.25
2022-12-15T23:07:47.556Z,38.28
2022-12-15T23:10:36.542Z,38.10
2022-12-15T23:13:03.463Z,39.30
2022-12-15T23:15:50.284Z,40.22
2022-12-15T23:18:18.507Z,39.95
2022-12-15T23:20:45.503Z,38.88
2022-12-15T23:23:12.471Z,41.05
2022-12-15T23:25:39.213Z,36.53
2022-12-15T23:28:06.049Z,40.05
2022-12-15T23:30:32.828Z,37.92
2022-12-15T23:32:59.827Z,35.08
2022-12-15T23:35:26.977Z,37.70
2022-12-15T23:37:53.748Z,37.28
2022-12-15T23:40:22.287Z,38.55
2022-12-15T23:42:50.457Z,35.33
2022-12-15T23:45:18.199Z,36.58
2022-12-15T23:47:45.136Z,37.33
2022-12-15T23:50:11.937Z,35.88
2022-12-15T23:52:38.713Z,35.88
2022-12-15T23:55:08.040Z,34.13
2022-12-15T23:57:35.452Z,35.78
